createdAt,value
2024-05-09T00:00:39.241Z,100.00
2024-05-09T00:03:08.058Z,100.00
2024-05-09T00:05:36.003Z,100.00
2024-05-09T00:08:03.505Z,100.00
2024-05-09T00:10:36.273Z,100.00
2024-05-09T00:13:09.345Z,100.00
2024-05-09T00:15:36.852Z,100.00
2024-05-09T00:18:05.328Z,100.00
2024-05-09T00:20:38.285Z,100.00
2024-05-09T00:23:12.389Z,100.00
2024-05-09T00:25:41.852Z,100.00
2024-05-09T00:28:08.829Z,100.00
2024-05-09T00:30:37.051Z,100.00
2024-05-09T00:33:09.364Z,100.00
2024-05-09T00:35:38.054Z,100.00
2024-05-09T00:38:05.164Z,100.00
2024-05-09T00:40:40.026Z,100.00
2024-05-09T00:43:10.217Z,100.00
2024-05-09T00:45:37.234Z,100.00
2024-05-09T00:48:07.491Z,100.00
2024-05-09T00:50:39.892Z,100.00
2024-05-09T00:53:10.006Z,100.00
2024-05-09T00:55:37.788Z,100.00
2024-05-09T00:58:06.046Z,100.00
2024-05-09T01:00:38.922Z,100.00
2024-05-09T01:03:13.052Z,100.00
2024-05-09T01:05:41.951Z,100.00
2024-05-09T01:08:10.830Z,100.00
2024-05-09T01:10:38.177Z,100.00
2024-05-09T01:13:06.003Z,100.00
2024-05-09T01:15:34.741Z,100.00
2024-05-09T01:18:06.922Z,100.00
2024-05-09T01:20:41.096Z,100.00
2024-05-09T01:23:11.147Z,100.00
2024-05-09T01:25:38.295Z,100.00
2024-05-09T01:28:05.709Z,100.00
2024-05-09T01:30:35.690Z,100.00
2024-05-09T01:33:06.833Z,100.00
2024-05-09T01:35:35.439Z,100.00
2024-05-09T01:38:02.341Z,100.00
2024-05-09T01:40:36.840Z,100.00
2024-05-09T01:43:06.625Z,100.00
2024-05-09T01:45:34.354Z,100.00
2024-05-09T01:48:01.733Z,100.00
2024-05-09T01:50:37.557Z,100.00
2024-05-09T01:53:09.125Z,100.00
2024-05-09T01:55:35.966Z,100.00
2024-05-09T01:58:02.703Z,100.00
2024-05-09T02:00:38.320Z,100.00
2024-05-09T02:03:10.448Z,100.00
2024-05-09T02:05:38.452Z,100.00
2024-05-09T02:08:06.687Z,100.00
2024-05-09T02:10:33.726Z,100.00
2024-05-09T02:13:00.909Z,100.00
2024-05-09T02:15:27.826Z,100.00
2024-05-09T02:17:54.848Z,100.00
2024-05-09T02:20:30.604Z,100.00
2024-05-09T02:23:05.067Z,100.00
2024-05-09T02:25:32.814Z,100.00
2024-05-09T02:27:59.744Z,100.00
2024-05-09T02:30:36.189Z,100.00
2024-05-09T02:33:07.794Z,100.00
2024-05-09T02:35:35.092Z,100.00
2024-05-09T02:38:02.032Z,100.00
2024-05-09T02:40:36.196Z,100.00
2024-05-09T02:43:06.144Z,100.00
2024-05-09T02:45:33.195Z,100.00
2024-05-09T02:48:00.740Z,100.00
2024-05-09T02:50:34.576Z,100.00
2024-05-09T02:53:06.294Z,100.00
2024-05-09T02:55:34.403Z,100.00
2024-05-09T02:58:01.126Z,100.00
2024-05-09T03:00:36.687Z,100.00
2024-05-09T03:03:08.602Z,100.00
2024-05-09T03:05:36.952Z,100.00
2024-05-09T03:08:04.503Z,100.00
2024-05-09T03:10:36.024Z,100.00
2024-05-09T03:13:09.189Z,100.00
2024-05-09T03:15:36.471Z,100.00
2024-05-09T03:18:04.535Z,100.00
2024-05-09T03:20:34.840Z,100.00
2024-05-09T03:23:04.228Z,100.00
2024-05-09T03:25:31.143Z,100.00
2024-05-09T03:27:57.949Z,100.00
2024-05-09T03:30:36.697Z,100.00
2024-05-09T03:33:19.217Z,100.00
2024-05-09T03:35:48.052Z,100.00
2024-05-09T03:38:15.201Z,100.00
2024-05-09T03:40:50.227Z,100.00
2024-05-09T03:43:18.377Z,100.00
2024-05-09T03:45:46.777Z,100.00
2024-05-09T03:48:13.871Z,100.00
2024-05-09T03:50:41.289Z,100.00
2024-05-09T03:53:13.260Z,100.00
2024-05-09T03:55:40.547Z,100.00
2024-05-09T03:58:12.711Z,100.00
2024-05-09T04:00:40.347Z,100.00
2024-05-09T04:03:10.268Z,100.00
2024-05-09T04:05:44.102Z,100.00
2024-05-09T04:08:12.716Z,100.00
2024-05-09T04:10:39.521Z,100.00
2024-05-09T04:13:06.336Z,100.00
2024-05-09T04:15:33.237Z,100.00
2024-05-09T04:18:00.663Z,100.00
2024-05-09T04:20:36.157Z,100.00
2024-05-09T04:23:07.197Z,100.00
2024-05-09T04:25:34.846Z,100.00
2024-05-09T04:28:01.749Z,100.00
2024-05-09T04:30:37.122Z,100.00
2024-05-09T04:33:09.233Z,100.00
2024-05-09T04:35:38.370Z,100.00
2024-05-09T04:38:05.755Z,100.00
2024-05-09T04:40:35.769Z,100.00
2024-05-09T04:43:05.574Z,100.00
2024-05-09T04:45:32.898Z,100.00
2024-05-09T04:47:59.993Z,100.00
2024-05-09T04:50:35.567Z,100.00
2024-05-09T04:53:06.202Z,100.00
2024-05-09T04:55:36.101Z,100.00
2024-05-09T04:58:02.986Z,100.00
2024-05-09T05:00:35.934Z,100.00
2024-05-09T05:03:13.831Z,100.00
2024-05-09T05:05:43.396Z,100.00
2024-05-09T05:08:16.127Z,100.00
2024-05-09T05:10:44.038Z,100.00
2024-05-09T05:13:22.595Z,100.00
2024-05-09T05:15:58.286Z,100.00
2024-05-09T05:18:27.385Z,100.00
2024-05-09T05:20:58.582Z,100.00
2024-05-09T05:23:25.521Z,100.00
2024-05-09T05:25:54.369Z,100.00
2024-05-09T05:28:22.003Z,100.00
2024-05-09T05:30:49.021Z,100.00
2024-05-09T05:33:18.727Z,100.00
2024-05-09T05:35:46.109Z,100.00
2024-05-09T05:38:12.984Z,100.00
2024-05-09T05:40:40.942Z,100.00
2024-05-09T05:43:10.281Z,100.00
2024-05-09T05:45:37.462Z,100.00
2024-05-09T05:48:06.106Z,100.00
2024-05-09T05:50:36.732Z,100.00
2024-05-09T05:53:09.839Z,100.00
2024-05-09T05:55:38.696Z,100.00
2024-05-09T05:58:05.538Z,100.00
2024-05-09T06:00:38.700Z,100.00
2024-05-09T06:03:07.898Z,100.00
2024-05-09T06:05:36.345Z,100.00
2024-05-09T06:08:03.316Z,100.00
2024-05-09T06:10:37.572Z,100.00
2024-05-09T06:13:07.337Z,100.00
2024-05-09T06:15:34.186Z,100.00
2024-05-09T06:18:01.675Z,100.00
2024-05-09T06:20:35.560Z,100.00
2024-05-09T06:23:08.809Z,100.00
2024-05-09T06:25:36.322Z,100.00
2024-05-09T06:28:03.813Z,100.00
2024-05-09T06:30:38.386Z,100.00
2024-05-09T06:33:10.128Z,100.00
2024-05-09T06:35:38.310Z,100.00
2024-05-09T06:38:06.024Z,100.00
2024-05-09T06:40:37.582Z,100.00
2024-05-09T06:43:18.399Z,100.00
2024-05-09T06:45:52.465Z,100.00
2024-05-09T06:48:20.204Z,100.00
2024-05-09T06:50:47.969Z,100.00
2024-05-09T06:53:15.789Z,98.89
2024-05-09T06:55:42.963Z,100.00
2024-05-09T06:58:09.881Z,100.00
2024-05-09T07:00:39.890Z,93.87
2024-05-09T07:03:14.716Z,85.80
2024-05-09T07:05:44.128Z,79.05
2024-05-09T07:08:11.723Z,78.80
2024-05-09T07:10:38.719Z,75.27
2024-05-09T07:13:09.962Z,76.39
2024-05-09T07:15:36.775Z,70.98
2024-05-09T07:18:15.548Z,62.52
2024-05-09T07:20:43.316Z,66.35
2024-05-09T07:23:11.074Z,76.44
2024-05-09T07:25:38.541Z,77.33
2024-05-09T07:28:05.803Z,60.68
2024-05-09T07:30:34.505Z,62.79
2024-05-09T07:33:03.091Z,73.59
2024-05-09T07:35:30.905Z,63.92
2024-05-09T07:37:58.065Z,64.26
2024-05-09T07:40:32.905Z,58.43
2024-05-09T07:43:08.098Z,50.95
2024-05-09T07:52:32.435Z,50.50
2024-05-09T07:55:53.960Z,47.87
2024-05-09T07:58:20.891Z,45.44
2024-05-09T08:00:47.921Z,42.91
2024-05-09T08:03:14.828Z,47.31
2024-05-09T08:05:41.691Z,46.66
2024-05-09T08:08:08.853Z,45.30
2024-05-09T08:10:35.583Z,42.13
2024-05-09T08:13:02.598Z,44.27
2024-05-09T08:15:29.603Z,42.79
2024-05-09T08:17:56.675Z,41.54
2024-05-09T08:20:30.947Z,41.68
2024-05-09T08:23:01.645Z,40.35
2024-05-09T08:25:28.935Z,39.27
2024-05-09T08:27:55.783Z,40.31
2024-05-09T08:30:30.014Z,46.97
2024-05-09T08:33:04.087Z,44.21
2024-05-09T08:35:31.868Z,40.97
2024-05-09T08:37:59.078Z,40.23
2024-05-09T08:40:33.482Z,38.79
2024-05-09T08:43:06.155Z,43.18
2024-05-09T08:45:34.759Z,43.52
2024-05-09T08:48:05.899Z,39.43
2024-05-09T08:50:38.771Z,42.44
2024-05-09T08:53:07.372Z,41.99
2024-05-09T08:55:34.887Z,40.90
2024-05-09T08:58:03.690Z,39.38
2024-05-09T09:00:36.838Z,41.68
2024-05-09T09:03:07.703Z,37.84
2024-05-09T09:05:38.018Z,40.07
2024-05-09T09:08:07.447Z,38.11
2024-05-09T09:10:34.657Z,40.25
2024-05-09T09:13:05.139Z,41.65
2024-05-09T09:15:33.007Z,37.75
2024-05-09T09:18:00.936Z,35.66
2024-05-09T09:20:35.862Z,38.40
2024-05-09T09:23:04.420Z,38.44
2024-05-09T09:25:31.852Z,34.85
2024-05-09T09:27:58.921Z,34.65
2024-05-09T09:30:36.256Z,35.77
2024-05-09T09:33:14.089Z,36.42
2024-05-09T09:35:42.284Z,37.16
2024-05-09T09:38:10.670Z,33.61
2024-05-09T09:40:45.082Z,35.70
2024-05-09T09:43:20.478Z,32.03
2024-05-09T09:45:50.994Z,29.24
2024-05-09T09:48:19.969Z,33.88
2024-05-09T09:50:48.510Z,32.39
2024-05-09T09:53:16.643Z,34.75
2024-05-09T09:55:43.855Z,35.84
2024-05-09T09:58:13.217Z,31.78
2024-05-09T10:00:41.961Z,30.34
2024-05-09T10:03:09.069Z,29.62
2024-05-09T10:05:36.820Z,31.55
2024-05-09T10:08:07.419Z,30.35
2024-05-09T10:10:35.657Z,31.12
2024-05-09T10:13:07.501Z,30.98
2024-05-09T10:15:47.787Z,30.72
2024-05-09T10:18:15.034Z,32.67
2024-05-09T10:20:42.619Z,30.60
2024-05-09T10:23:30.000Z,28.19
2024-05-09T10:26:05.165Z,27.74
2024-05-09T10:28:35.359Z,27.68
2024-05-09T10:31:16.480Z,29.45
2024-05-09T10:33:51.553Z,27.91
2024-05-09T10:36:21.284Z,29.31
2024-05-09T10:38:53.175Z,27.89
2024-05-09T10:41:20.512Z,29.98
2024-05-09T10:43:47.755Z,29.74
2024-05-09T10:46:15.375Z,28.29
2024-05-09T10:48:44.292Z,24.65
2024-05-09T10:51:11.650Z,25.57
2024-05-09T10:53:42.535Z,25.12
2024-05-09T10:56:09.793Z,29.97
2024-05-09T10:58:36.875Z,27.61
2024-05-09T11:01:06.864Z,27.56
2024-05-09T11:03:34.727Z,29.57
2024-05-09T11:06:01.773Z,28.10
2024-05-09T11:08:29.280Z,29.65
2024-05-09T11:10:56.708Z,27.83
2024-05-09T11:13:27.235Z,26.91
2024-05-09T11:15:54.087Z,28.39
2024-05-09T11:18:26.751Z,26.22
2024-05-09T11:20:56.719Z,30.07
2024-05-09T11:23:30.681Z,28.87
2024-05-09T11:25:58.545Z,30.28
2024-05-09T11:28:28.160Z,30.51
2024-05-09T11:31:08.560Z,27.61
2024-05-09T11:33:40.206Z,32.28
2024-05-09T11:36:08.650Z,34.52
2024-05-09T11:38:35.494Z,28.12
2024-05-09T11:41:03.219Z,30.97
2024-05-09T11:43:30.071Z,29.05
2024-05-09T11:46:01.066Z,27.02
2024-05-09T11:48:28.249Z,31.27
2024-05-09T11:50:55.600Z,34.36
2024-05-09T11:53:22.589Z,31.34
2024-05-09T11:55:49.809Z,30.62
2024-05-09T11:58:18.190Z,32.54
2024-05-09T12:00:46.370Z,31.65
2024-05-09T12:03:13.631Z,31.84
2024-05-09T12:05:40.812Z,30.43
2024-05-09T12:08:07.919Z,29.14
2024-05-09T12:10:36.249Z,32.14
2024-05-09T12:13:05.680Z,32.57
2024-05-09T12:15:36.646Z,31.04
2024-05-09T12:18:04.790Z,34.24
2024-05-09T12:20:37.171Z,32.55
2024-05-09T12:23:07.198Z,30.23
2024-05-09T12:25:35.802Z,27.57
2024-05-09T12:28:03.126Z,28.26
2024-05-09T12:30:36.590Z,30.82
2024-05-09T12:33:11.863Z,32.22
2024-05-09T12:35:39.908Z,32.07
2024-05-09T12:38:06.611Z,30.77
2024-05-09T12:40:36.978Z,30.85
2024-05-09T12:43:09.968Z,33.44
2024-05-09T12:45:38.189Z,30.14
2024-05-09T12:48:08.308Z,28.21
2024-05-09T12:50:36.309Z,29.39
2024-05-09T12:53:04.389Z,31.39
2024-05-09T12:55:40.462Z,28.74
2024-05-09T12:58:16.191Z,29.28
2024-05-09T13:00:43.938Z,29.89
2024-05-09T13:03:11.013Z,32.37
2024-05-09T13:05:38.026Z,28.91
2024-05-09T13:08:05.285Z,31.34
2024-05-09T13:10:33.435Z,30.70
2024-05-09T13:13:01.996Z,30.47
2024-05-09T13:15:34.685Z,28.43
2024-05-09T13:18:03.351Z,31.05
2024-05-09T13:20:34.127Z,35.84
2024-05-09T13:23:04.005Z,32.11
2024-05-09T13:25:30.909Z,32.15
2024-05-09T13:27:57.828Z,32.03
2024-05-09T13:30:30.192Z,28.05
2024-05-09T13:33:06.855Z,26.52
2024-05-09T13:35:35.481Z,29.08
2024-05-09T13:38:03.890Z,28.63
2024-05-09T13:40:34.547Z,30.19
2024-05-09T13:43:05.990Z,29.74
2024-05-09T13:45:33.765Z,30.46
2024-05-09T13:48:02.338Z,30.76
2024-05-09T13:50:35.920Z,31.22
2024-05-09T13:53:08.352Z,31.76
2024-05-09T13:55:39.387Z,31.40
2024-05-09T13:58:07.903Z,29.42
2024-05-09T14:00:44.862Z,30.33
2024-05-09T14:03:20.147Z,29.80
2024-05-09T14:05:49.332Z,29.76
2024-05-09T14:08:19.420Z,29.26
2024-05-09T14:10:47.155Z,28.95
2024-05-09T14:13:15.203Z,27.72
2024-05-09T14:15:42.033Z,28.07
2024-05-09T14:18:12.667Z,29.51
2024-05-09T14:20:41.586Z,28.17
2024-05-09T14:23:08.578Z,27.14
2024-05-09T14:25:38.957Z,27.61
2024-05-09T14:28:09.341Z,29.10
2024-05-09T14:30:38.100Z,27.81
2024-05-09T14:33:07.445Z,29.61
2024-05-09T14:35:35.529Z,28.57
2024-05-09T14:38:02.819Z,28.18
2024-05-09T14:40:40.208Z,29.48
2024-05-09T14:43:11.529Z,29.39
2024-05-09T14:45:39.021Z,30.16
2024-05-09T14:48:07.393Z,30.10
2024-05-09T14:50:38.151Z,29.37
2024-05-09T14:53:07.745Z,27.04
2024-05-09T14:55:37.409Z,29.57
2024-05-09T14:58:09.227Z,28.08
2024-05-09T15:00:46.705Z,28.58
2024-05-09T15:03:18.397Z,28.70
2024-05-09T15:05:45.492Z,28.04
2024-05-09T15:08:12.398Z,29.95
2024-05-09T15:10:39.406Z,27.72
2024-05-09T15:13:08.101Z,26.63
2024-05-09T15:15:37.061Z,26.97
2024-05-09T15:18:05.578Z,26.63
2024-05-09T15:20:36.122Z,27.60
2024-05-09T15:23:05.376Z,27.17
2024-05-09T15:25:33.771Z,27.26
2024-05-09T15:28:01.736Z,27.86
2024-05-09T15:30:33.062Z,29.42
2024-05-09T15:33:03.866Z,27.93
2024-05-09T15:35:31.213Z,27.86
2024-05-09T15:37:58.103Z,27.98
2024-05-09T15:40:34.495Z,28.79
2024-05-09T15:43:06.680Z,27.86
2024-05-09T15:45:34.238Z,27.25
2024-05-09T15:48:02.780Z,27.55
2024-05-09T15:50:36.975Z,28.06
2024-05-09T15:53:08.148Z,30.75
2024-05-09T15:55:35.838Z,28.82
2024-05-09T15:58:04.071Z,27.19
2024-05-09T16:03:01.647Z,28.35
2024-05-09T16:05:28.560Z,28.85
2024-05-09T16:07:55.423Z,29.14
2024-05-09T16:10:26.024Z,28.43
2024-05-09T16:12:58.910Z,28.01
2024-05-09T16:15:25.981Z,28.09
2024-05-09T16:17:52.729Z,28.33
2024-05-09T16:20:29.939Z,29.41
2024-05-09T16:23:05.260Z,28.04
2024-05-09T16:25:31.973Z,29.60
2024-05-09T16:27:58.873Z,28.94
2024-05-09T16:30:32.134Z,28.65
2024-05-09T16:33:03.199Z,28.74
2024-05-09T16:35:30.373Z,29.17
2024-05-09T16:37:57.338Z,28.90
2024-05-09T16:40:34.191Z,29.88
2024-05-09T16:43:06.111Z,29.37
2024-05-09T16:45:33.357Z,28.40
2024-05-09T16:48:01.375Z,29.21
2024-05-09T16:50:32.738Z,29.37
2024-05-09T16:53:02.250Z,30.41
2024-05-09T16:55:29.126Z,30.46
2024-05-09T16:57:57.085Z,30.27
2024-05-09T17:00:35.194Z,29.85
2024-05-09T17:03:08.925Z,29.76
2024-05-09T17:05:36.494Z,30.09
2024-05-09T17:08:03.894Z,30.48
2024-05-09T17:10:33.758Z,29.90
2024-05-09T17:13:07.041Z,30.48
2024-05-09T17:15:36.231Z,30.07
2024-05-09T17:18:04.435Z,29.90
2024-05-09T17:20:34.744Z,30.46
2024-05-09T17:23:05.534Z,31.07
2024-05-09T17:25:33.245Z,30.71
2024-05-09T17:28:06.435Z,30.77
2024-05-09T17:30:36.673Z,31.10
2024-05-09T17:33:06.943Z,30.77
2024-05-09T17:35:34.575Z,31.79
2024-05-09T17:38:01.711Z,31.85
2024-05-09T17:40:33.580Z,31.48
2024-05-09T17:43:04.091Z,32.74
2024-05-09T17:45:31.764Z,33.04
2024-05-09T17:47:59.183Z,32.78
2024-05-09T17:50:31.930Z,33.39
2024-05-09T17:53:03.006Z,33.50
2024-05-09T17:55:30.020Z,33.03
2024-05-09T17:57:57.064Z,33.90
2024-05-09T18:00:36.096Z,35.98
2024-05-09T18:03:07.017Z,39.14
2024-05-09T18:05:35.890Z,40.56
2024-05-09T18:08:03.647Z,41.21
2024-05-09T18:10:36.418Z,44.24
2024-05-09T18:13:07.068Z,44.88
2024-05-09T18:15:35.075Z,47.34
2024-05-09T18:18:03.422Z,48.62
2024-05-09T18:20:39.864Z,52.71
2024-05-09T18:23:11.533Z,56.74
2024-05-09T18:25:38.312Z,56.91
2024-05-09T18:28:06.407Z,64.23
2024-05-09T18:30:36.134Z,60.80
2024-05-09T18:33:06.408Z,61.09
2024-05-09T18:35:34.735Z,63.20
2024-05-09T18:38:01.583Z,65.33
2024-05-09T18:40:34.134Z,72.59
2024-05-09T18:43:05.633Z,64.25
2024-05-09T18:45:33.843Z,66.81
2024-05-09T18:48:01.138Z,62.25
2024-05-09T18:50:34.549Z,64.49
2024-05-09T18:53:08.667Z,70.40
2024-05-09T18:55:35.842Z,67.01
2024-05-09T18:58:04.031Z,71.66
2024-05-09T19:00:35.624Z,73.20
2024-05-09T19:03:09.453Z,76.72
2024-05-09T19:05:38.842Z,79.42
2024-05-09T19:08:07.253Z,78.08
2024-05-09T19:10:35.528Z,74.56
2024-05-09T19:13:08.241Z,80.40
2024-05-09T19:15:39.139Z,73.99
2024-05-09T19:18:06.689Z,74.53
2024-05-09T19:20:35.498Z,80.47
2024-05-09T19:23:04.140Z,81.77
2024-05-09T19:25:31.188Z,82.25
2024-05-09T19:27:58.156Z,80.39
2024-05-09T19:30:34.337Z,83.76
2024-05-09T19:33:06.622Z,83.78
2024-05-09T19:35:33.410Z,81.40
2024-05-09T19:38:00.405Z,87.09
2024-05-09T19:40:31.734Z,81.76
2024-05-09T19:43:01.716Z,79.84
2024-05-09T19:45:29.213Z,83.47
2024-05-09T19:47:56.305Z,86.89
2024-05-09T19:50:31.908Z,83.21
2024-05-09T19:53:06.620Z,96.28
2024-05-09T19:55:33.931Z,93.89
2024-05-09T19:58:05.102Z,100.00
2024-05-09T20:00:36.557Z,96.02
2024-05-09T20:03:05.306Z,92.07
2024-05-09T20:05:32.467Z,100.00
2024-05-09T20:07:59.540Z,100.00
2024-05-09T20:10:31.483Z,97.74
2024-05-09T20:13:00.485Z,100.00
2024-05-09T20:15:27.380Z,99.86
2024-05-09T20:17:54.622Z,96.94
2024-05-09T20:20:32.200Z,100.00
2024-05-09T20:23:03.927Z,100.00
2024-05-09T20:25:30.689Z,100.00
2024-05-09T20:27:57.648Z,100.00
2024-05-09T20:30:31.334Z,100.00
2024-05-09T20:33:00.516Z,100.00
2024-05-09T20:35:30.570Z,100.00
2024-05-09T20:37:57.423Z,100.00
2024-05-09T20:40:29.251Z,100.00
2024-05-09T20:43:00.351Z,100.00
2024-05-09T20:45:27.251Z,100.00
2024-05-09T20:47:54.107Z,100.00
2024-05-09T20:50:28.944Z,100.00
2024-05-09T20:53:03.676Z,100.00
2024-05-09T20:55:30.641Z,100.00
2024-05-09T20:57:57.853Z,100.00
2024-05-09T21:00:34.530Z,100.00
2024-05-09T21:03:07.212Z,100.00
2024-05-09T21:05:35.255Z,100.00
2024-05-09T21:08:02.875Z,100.00
2024-05-09T21:10:32.584Z,100.00
2024-05-09T21:13:03.324Z,100.00
2024-05-09T21:15:31.049Z,100.00
2024-05-09T21:17:57.945Z,100.00
2024-05-09T21:20:30.960Z,100.00
2024-05-09T21:22:59.472Z,100.00
2024-05-09T21:25:26.375Z,100.00
2024-05-09T21:27:53.405Z,100.00
2024-05-09T21:30:31.802Z,100.00
2024-05-09T21:33:08.242Z,100.00
2024-05-09T21:35:35.375Z,100.00
2024-05-09T21:38:02.090Z,100.00
2024-05-09T21:40:34.278Z,100.00
2024-05-09T21:43:04.043Z,100.00
2024-05-09T21:45:30.971Z,100.00
2024-05-09T21:47:57.931Z,100.00
2024-05-09T21:50:32.240Z,100.00
2024-05-09T21:53:06.189Z,100.00
2024-05-09T21:55:33.229Z,100.00
2024-05-09T21:58:00.372Z,100.00
2024-05-09T22:00:34.717Z,100.00
2024-05-09T22:03:05.346Z,100.00
2024-05-09T22:05:32.477Z,100.00
2024-05-09T22:07:59.605Z,100.00
2024-05-09T22:10:31.176Z,100.00
2024-05-09T22:13:01.698Z,100.00
2024-05-09T22:15:28.620Z,100.00
2024-05-09T22:17:56.586Z,100.00
2024-05-09T22:20:32.917Z,100.00
2024-05-09T22:23:04.283Z,100.00
2024-05-09T22:25:32.054Z,100.00
2024-05-09T22:27:59.878Z,100.00
2024-05-09T22:30:34.648Z,100.00
2024-05-09T22:33:06.054Z,100.00
2024-05-09T22:35:33.217Z,100.00
2024-05-09T22:38:00.065Z,100.00
2024-05-09T22:40:38.312Z,100.00
2024-05-09T22:43:13.681Z,100.00
2024-05-09T22:45:41.108Z,100.00
2024-05-09T22:48:08.700Z,100.00
2024-05-09T22:50:35.842Z,100.00
2024-05-09T22:53:02.652Z,100.00
2024-05-09T22:55:29.817Z,100.00
2024-05-09T22:57:56.633Z,100.00
2024-05-09T23:00:31.339Z,100.00
2024-05-09T23:03:01.014Z,100.00
2024-05-09T23:05:28.477Z,100.00
2024-05-09T23:07:55.371Z,100.00
2024-05-09T23:10:30.812Z,100.00
2024-05-09T23:13:02.163Z,100.00
2024-05-09T23:15:29.117Z,100.00
2024-05-09T23:17:56.059Z,100.00
2024-05-09T23:20:33.270Z,100.00
2024-05-09T23:23:05.473Z,100.00
2024-05-09T23:25:32.560Z,100.00
2024-05-09T23:27:59.440Z,100.00
2024-05-09T23:30:36.084Z,100.00
2024-05-09T23:33:06.845Z,100.00
2024-05-09T23:35:33.749Z,100.00
2024-05-09T23:38:00.506Z,100.00
2024-05-09T23:40:37.341Z,100.00
2024-05-09T23:43:07.668Z,100.00
2024-05-09T23:45:34.908Z,100.00
2024-05-09T23:48:01.971Z,100.00
2024-05-09T23:52:58.485Z,100.00
2024-05-09T23:55:25.247Z,100.00
2024-05-09T23:57:52.019Z,100.00
